sensor_id;sensor_type;location;lat;lon;timestamp;P1;durP1;ratioP1;P2;durP2;ratioP2
62058;SDS011;48017;51.064;7.014;2022-09-29T00:00:04;4.85;;;3.05;;
62058;SDS011;48017;51.064;7.014;2022-09-29T00:02:30;4.10;;;2.58;;
62058;SDS011;48017;51.064;7.014;2022-09-29T00:04:55;4.22;;;3.00;;
62058;SDS011;48017;51.064;7.014;2022-09-29T00:07:20;4.90;;;3.22;;
62058;SDS011;48017;51.064;7.014;2022-09-29T00:09:46;4.00;;;2.55;;
62058;SDS011;48017;51.064;7.014;2022-09-29T00:12:11;4.30;;;2.92;;
62058;SDS011;48017;51.064;7.014;2022-09-29T00:14:36;3.72;;;2.72;;
62058;SDS011;48017;51.064;7.014;2022-09-29T00:17:02;4.38;;;3.25;;
62058;SDS011;48017;51.064;7.014;2022-09-29T00:19:27;5.95;;;2.95;;
62058;SDS011;48017;51.064;7.014;2022-09-29T00:21:53;4.50;;;2.97;;
62058;SDS011;48017;51.064;7.014;2022-09-29T00:24:18;4.40;;;3.08;;
62058;SDS011;48017;51.064;7.014;2022-09-29T00:26:44;3.92;;;2.97;;
62058;SDS011;48017;51.064;7.014;2022-09-29T00:29:10;4.75;;;2.80;;
62058;SDS011;48017;51.064;7.014;2022-09-29T00:31:36;4.70;;;2.95;;
62058;SDS011;48017;51.064;7.014;2022-09-29T00:34:01;4.85;;;3.10;;
62058;SDS011;48017;51.064;7.014;2022-09-29T00:36:27;4.72;;;2.95;;
62058;SDS011;48017;51.064;7.014;2022-09-29T00:38:54;3.63;;;2.70;;
62058;SDS011;48017;51.064;7.014;2022-09-29T00:41:24;4.72;;;2.80;;
62058;SDS011;48017;51.064;7.014;2022-09-29T00:44:03;4.15;;;2.72;;
62058;SDS011;48017;51.064;7.014;2022-09-29T00:52:06;4.50;;;2.83;;
62058;SDS011;48017;51.064;7.014;2022-09-29T00:54:38;4.15;;;2.75;;
62058;SDS011;48017;51.064;7.014;2022-09-29T00:57:09;4.15;;;3.05;;
62058;SDS011;48017;51.064;7.014;2022-09-29T00:59:53;3.58;;;2.58;;
62058;SDS011;48017;51.064;7.014;2022-09-29T01:02:25;3.95;;;2.90;;
62058;SDS011;48017;51.064;7.014;2022-09-29T01:04:51;4.05;;;2.80;;
62058;SDS011;48017;51.064;7.014;2022-09-29T01:07:20;4.68;;;3.08;;
62058;SDS011;48017;51.064;7.014;2022-09-29T01:09:47;3.50;;;2.72;;
62058;SDS011;48017;51.064;7.014;2022-09-29T01:12:16;3.92;;;2.80;;
62058;SDS011;48017;51.064;7.014;2022-09-29T01:14:42;5.03;;;3.03;;
62058;SDS011;48017;51.064;7.014;2022-09-29T01:17:08;4.00;;;2.85;;
62058;SDS011;48017;51.064;7.014;2022-09-29T01:27:27;4.28;;;2.80;;
62058;SDS011;48017;51.064;7.014;2022-09-29T01:30:04;4.68;;;2.80;;
62058;SDS011;48017;51.064;7.014;2022-09-29T01:32:46;5.78;;;3.10;;
62058;SDS011;48017;51.064;7.014;2022-09-29T01:44:07;3.92;;;2.90;;
62058;SDS011;48017;51.064;7.014;2022-09-29T01:46:46;3.88;;;2.50;;
62058;SDS011;48017;51.064;7.014;2022-09-29T01:49:16;4.63;;;2.90;;
62058;SDS011;48017;51.064;7.014;2022-09-29T01:54:52;4.63;;;2.90;;
62058;SDS011;48017;51.064;7.014;2022-09-29T01:57:31;6.78;;;2.92;;
62058;SDS011;48017;51.064;7.014;2022-09-29T02:00:13;4.18;;;2.65;;
62058;SDS011;48017;51.064;7.014;2022-09-29T02:05:30;5.78;;;3.22;;
62058;SDS011;48017;51.064;7.014;2022-09-29T02:08:10;4.13;;;2.88;;
62058;SDS011;48017;51.064;7.014;2022-09-29T02:10:40;4.53;;;3.08;;
62058;SDS011;48017;51.064;7.014;2022-09-29T02:13:12;4.72;;;2.88;;
62058;SDS011;48017;51.064;7.014;2022-09-29T02:15:42;3.83;;;3.00;;
62058;SDS011;48017;51.064;7.014;2022-09-29T02:18:16;4.55;;;3.25;;
62058;SDS011;48017;51.064;7.014;2022-09-29T02:20:46;4.18;;;2.83;;
62058;SDS011;48017;51.064;7.014;2022-09-29T02:23:12;3.95;;;2.67;;
62058;SDS011;48017;51.064;7.014;2022-09-29T02:25:37;3.92;;;2.88;;
62058;SDS011;48017;51.064;7.014;2022-09-29T02:28:04;3.75;;;3.03;;
62058;SDS011;48017;51.064;7.014;2022-09-29T02:30:30;5.88;;;2.78;;
62058;SDS011;48017;51.064;7.014;2022-09-29T02:32:56;5.47;;;2.80;;
62058;SDS011;48017;51.064;7.014;2022-09-29T02:35:22;5.18;;;3.15;;
62058;SDS011;48017;51.064;7.014;2022-09-29T02:38:06;4.07;;;2.92;;
62058;SDS011;48017;51.064;7.014;2022-09-29T02:40:48;4.13;;;2.85;;
62058;SDS011;48017;51.064;7.014;2022-09-29T02:56:39;7.50;;;3.47;;
62058;SDS011;48017;51.064;7.014;2022-09-29T02:59:11;4.25;;;3.15;;
62058;SDS011;48017;51.064;7.014;2022-09-29T03:01:51;3.55;;;2.80;;
62058;SDS011;48017;51.064;7.014;2022-09-29T03:04:19;3.97;;;2.67;;
62058;SDS011;48017;51.064;7.014;2022-09-29T03:06:46;4.70;;;3.22;;
62058;SDS011;48017;51.064;7.014;2022-09-29T03:09:11;5.43;;;3.35;;
62058;SDS011;48017;51.064;7.014;2022-09-29T03:11:37;4.55;;;3.03;;
62058;SDS011;48017;51.064;7.014;2022-09-29T03:14:02;5.22;;;3.38;;
62058;SDS011;48017;51.064;7.014;2022-09-29T03:16:28;4.72;;;3.38;;
62058;SDS011;48017;51.064;7.014;2022-09-29T03:18:53;5.15;;;3.50;;
62058;SDS011;48017;51.064;7.014;2022-09-29T03:21:20;5.80;;;3.63;;
62058;SDS011;48017;51.064;7.014;2022-09-29T03:23:46;5.20;;;3.25;;
62058;SDS011;48017;51.064;7.014;2022-09-29T03:26:11;4.55;;;3.28;;
62058;SDS011;48017;51.064;7.014;2022-09-29T03:28:37;5.13;;;3.63;;
62058;SDS011;48017;51.064;7.014;2022-09-29T03:31:03;5.38;;;3.30;;
62058;SDS011;48017;51.064;7.014;2022-09-29T03:33:30;4.88;;;3.53;;
62058;SDS011;48017;51.064;7.014;2022-09-29T03:35:56;5.20;;;3.50;;
62058;SDS011;48017;51.064;7.014;2022-09-29T03:38:21;6.80;;;3.30;;
62058;SDS011;48017;51.064;7.014;2022-09-29T03:40:46;5.15;;;3.65;;
62058;SDS011;48017;51.064;7.014;2022-09-29T03:43:12;6.10;;;3.95;;
62058;SDS011;48017;51.064;7.014;2022-09-29T03:45:37;4.57;;;3.40;;
62058;SDS011;48017;51.064;7.014;2022-09-29T03:48:11;5.45;;;3.63;;
62058;SDS011;48017;51.064;7.014;2022-09-29T03:50:36;6.85;;;4.00;;
62058;SDS011;48017;51.064;7.014;2022-09-29T03:53:01;6.20;;;3.65;;
62058;SDS011;48017;51.064;7.014;2022-09-29T03:55:27;5.72;;;3.83;;
62058;SDS011;48017;51.064;7.014;2022-09-29T03:57:52;4.75;;;3.72;;
62058;SDS011;48017;51.064;7.014;2022-09-29T04:00:17;5.70;;;3.75;;
62058;SDS011;48017;51.064;7.014;2022-09-29T04:02:43;6.05;;;4.20;;
62058;SDS011;48017;51.064;7.014;2022-09-29T04:05:08;5.28;;;3.70;;
62058;SDS011;48017;51.064;7.014;2022-09-29T04:07:34;5.50;;;3.85;;
62058;SDS011;48017;51.064;7.014;2022-09-29T04:09:59;5.80;;;4.00;;
62058;SDS011;48017;51.064;7.014;2022-09-29T04:12:24;5.40;;;3.95;;
62058;SDS011;48017;51.064;7.014;2022-09-29T04:14:50;5.85;;;4.03;;
62058;SDS011;48017;51.064;7.014;2022-09-29T04:17:15;6.20;;;4.30;;
62058;SDS011;48017;51.064;7.014;2022-09-29T04:19:40;5.38;;;3.90;;
62058;SDS011;48017;51.064;7.014;2022-09-29T04:22:06;5.40;;;3.63;;
62058;SDS011;48017;51.064;7.014;2022-09-29T04:24:31;5.45;;;3.95;;
62058;SDS011;48017;51.064;7.014;2022-09-29T04:26:56;5.43;;;3.95;;
62058;SDS011;48017;51.064;7.014;2022-09-29T04:29:21;6.40;;;4.22;;
62058;SDS011;48017;51.064;7.014;2022-09-29T04:31:47;5.97;;;4.25;;
62058;SDS011;48017;51.064;7.014;2022-09-29T04:34:12;5.80;;;4.05;;
62058;SDS011;48017;51.064;7.014;2022-09-29T04:36:38;6.10;;;3.63;;
62058;SDS011;48017;51.064;7.014;2022-09-29T04:39:03;5.75;;;4.00;;
62058;SDS011;48017;51.064;7.014;2022-09-29T04:41:29;5.72;;;3.90;;
62058;SDS011;48017;51.064;7.014;2022-09-29T04:43:58;5.22;;;3.72;;
62058;SDS011;48017;51.064;7.014;2022-09-29T04:46:24;6.95;;;3.60;;
62058;SDS011;48017;51.064;7.014;2022-09-29T04:48:49;4.68;;;3.40;;
62058;SDS011;48017;51.064;7.014;2022-09-29T04:51:14;4.78;;;3.60;;
62058;SDS011;48017;51.064;7.014;2022-09-29T04:53:40;8.43;;;3.58;;
62058;SDS011;48017;51.064;7.014;2022-09-29T04:56:06;5.53;;;3.97;;
62058;SDS011;48017;51.064;7.014;2022-09-29T04:58:33;5.10;;;3.70;;
62058;SDS011;48017;51.064;7.014;2022-09-29T05:01:09;5.38;;;4.00;;
62058;SDS011;48017;51.064;7.014;2022-09-29T05:03:37;6.80;;;3.80;;
62058;SDS011;48017;51.064;7.014;2022-09-29T05:06:04;5.85;;;3.90;;
62058;SDS011;48017;51.064;7.014;2022-09-29T05:08:30;6.90;;;3.95;;
62058;SDS011;48017;51.064;7.014;2022-09-29T05:10:55;6.93;;;4.32;;
62058;SDS011;48017;51.064;7.014;2022-09-29T05:13:21;5.05;;;3.80;;
62058;SDS011;48017;51.064;7.014;2022-09-29T05:15:46;5.70;;;4.00;;
62058;SDS011;48017;51.064;7.014;2022-09-29T05:18:12;8.38;;;4.15;;
62058;SDS011;48017;51.064;7.014;2022-09-29T05:20:37;6.15;;;3.78;;
62058;SDS011;48017;51.064;7.014;2022-09-29T05:23:02;6.22;;;3.83;;
62058;SDS011;48017;51.064;7.014;2022-09-29T05:25:34;7.90;;;4.63;;
62058;SDS011;48017;51.064;7.014;2022-09-29T05:28:00;7.95;;;4.68;;
62058;SDS011;48017;51.064;7.014;2022-09-29T05:30:25;7.05;;;4.40;;
62058;SDS011;48017;51.064;7.014;2022-09-29T05:32:51;8.25;;;4.32;;
62058;SDS011;48017;51.064;7.014;2022-09-29T05:35:16;9.18;;;4.55;;
62058;SDS011;48017;51.064;7.014;2022-09-29T05:37:43;10.25;;;4.40;;
62058;SDS011;48017;51.064;7.014;2022-09-29T05:40:09;8.40;;;4.30;;
62058;SDS011;48017;51.064;7.014;2022-09-29T05:42:35;5.75;;;4.18;;
62058;SDS011;48017;51.064;7.014;2022-09-29T05:45:00;6.05;;;3.90;;
62058;SDS011;48017;51.064;7.014;2022-09-29T05:47:25;4.88;;;3.42;;
62058;SDS011;48017;51.064;7.014;2022-09-29T05:49:51;5.47;;;3.60;;
62058;SDS011;48017;51.064;7.014;2022-09-29T05:52:16;6.40;;;3.55;;
62058;SDS011;48017;51.064;7.014;2022-09-29T05:54:42;5.75;;;3.63;;
62058;SDS011;48017;51.064;7.014;2022-09-29T05:57:07;5.57;;;3.28;;
62058;SDS011;48017;51.064;7.014;2022-09-29T05:59:32;4.72;;;3.15;;
62058;SDS011;48017;51.064;7.014;2022-09-29T06:01:58;8.52;;;3.78;;
62058;SDS011;48017;51.064;7.014;2022-09-29T06:04:23;5.82;;;3.97;;
62058;SDS011;48017;51.064;7.014;2022-09-29T06:06:48;5.25;;;3.45;;
62058;SDS011;48017;51.064;7.014;2022-09-29T06:09:14;5.13;;;2.97;;
62058;SDS011;48017;51.064;7.014;2022-09-29T06:11:39;6.00;;;3.63;;
62058;SDS011;48017;51.064;7.014;2022-09-29T06:14:05;4.78;;;3.50;;
62058;SDS011;48017;51.064;7.014;2022-09-29T06:16:31;4.88;;;3.60;;
62058;SDS011;48017;51.064;7.014;2022-09-29T06:18:58;5.35;;;3.95;;
62058;SDS011;48017;51.064;7.014;2022-09-29T06:21:25;4.65;;;3.33;;
62058;SDS011;48017;51.064;7.014;2022-09-29T06:23:54;5.32;;;3.78;;
62058;SDS011;48017;51.064;7.014;2022-09-29T06:26:21;7.97;;;4.45;;
62058;SDS011;48017;51.064;7.014;2022-09-29T06:28:48;5.47;;;3.17;;
62058;SDS011;48017;51.064;7.014;2022-09-29T06:31:14;6.10;;;4.40;;
62058;SDS011;48017;51.064;7.014;2022-09-29T06:33:41;6.68;;;4.28;;
62058;SDS011;48017;51.064;7.014;2022-09-29T06:36:17;7.50;;;4.80;;
62058;SDS011;48017;51.064;7.014;2022-09-29T06:39:04;5.72;;;4.15;;
62058;SDS011;48017;51.064;7.014;2022-09-29T06:41:30;6.95;;;4.47;;
62058;SDS011;48017;51.064;7.014;2022-09-29T06:43:55;6.18;;;3.85;;
62058;SDS011;48017;51.064;7.014;2022-09-29T06:46:21;5.25;;;3.65;;
62058;SDS011;48017;51.064;7.014;2022-09-29T06:48:47;5.20;;;3.60;;
62058;SDS011;48017;51.064;7.014;2022-09-29T06:51:12;5.43;;;3.38;;
62058;SDS011;48017;51.064;7.014;2022-09-29T06:53:41;4.45;;;3.20;;
62058;SDS011;48017;51.064;7.014;2022-09-29T06:56:06;4.13;;;3.17;;
62058;SDS011;48017;51.064;7.014;2022-09-29T06:58:33;5.28;;;3.40;;
62058;SDS011;48017;51.064;7.014;2022-09-29T07:00:59;4.88;;;3.10;;
62058;SDS011;48017;51.064;7.014;2022-09-29T07:03:26;4.75;;;3.45;;
62058;SDS011;48017;51.064;7.014;2022-09-29T07:05:52;6.70;;;3.35;;
62058;SDS011;48017;51.064;7.014;2022-09-29T07:08:18;4.40;;;3.35;;
62058;SDS011;48017;51.064;7.014;2022-09-29T07:10:44;4.47;;;3.20;;
62058;SDS011;48017;51.064;7.014;2022-09-29T07:13:10;4.13;;;3.03;;
62058;SDS011;48017;51.064;7.014;2022-09-29T07:15:36;4.30;;;2.97;;
62058;SDS011;48017;51.064;7.014;2022-09-29T07:18:02;4.28;;;2.92;;
62058;SDS011;48017;51.064;7.014;2022-09-29T07:20:28;5.20;;;3.00;;
62058;SDS011;48017;51.064;7.014;2022-09-29T07:22:55;4.10;;;2.93;;
62058;SDS011;48017;51.064;7.014;2022-09-29T07:25:21;4.72;;;3.30;;
62058;SDS011;48017;51.064;7.014;2022-09-29T07:27:48;3.85;;;2.78;;
62058;SDS011;48017;51.064;7.014;2022-09-29T07:30:15;4.18;;;2.85;;
62058;SDS011;48017;51.064;7.014;2022-09-29T07:32:41;3.58;;;2.72;;
62058;SDS011;48017;51.064;7.014;2022-09-29T07:35:07;5.95;;;3.45;;
62058;SDS011;48017;51.064;7.014;2022-09-29T07:37:33;5.00;;;3.08;;
62058;SDS011;48017;51.064;7.014;2022-09-29T07:39:58;3.60;;;2.58;;
62058;SDS011;48017;51.064;7.014;2022-09-29T07:42:24;4.45;;;3.00;;
62058;SDS011;48017;51.064;7.014;2022-09-29T07:44:51;6.68;;;2.80;;
62058;SDS011;48017;51.064;7.014;2022-09-29T07:47:17;3.65;;;2.90;;
62058;SDS011;48017;51.064;7.014;2022-09-29T07:49:43;4.32;;;3.15;;
62058;SDS011;48017;51.064;7.014;2022-09-29T07:52:09;3.50;;;2.70;;
62058;SDS011;48017;51.064;7.014;2022-09-29T07:54:34;3.20;;;2.47;;
62058;SDS011;48017;51.064;7.014;2022-09-29T07:56:59;4.60;;;2.88;;
62058;SDS011;48017;51.064;7.014;2022-09-29T07:59:27;3.60;;;2.65;;
62058;SDS011;48017;51.064;7.014;2022-09-29T08:01:53;3.53;;;2.58;;
62058;SDS011;48017;51.064;7.014;2022-09-29T08:04:19;3.58;;;2.60;;
62058;SDS011;48017;51.064;7.014;2022-09-29T08:06:44;5.18;;;2.63;;
62058;SDS011;48017;51.064;7.014;2022-09-29T08:09:10;3.65;;;2.70;;
62058;SDS011;48017;51.064;7.014;2022-09-29T08:11:37;3.47;;;2.40;;
62058;SDS011;48017;51.064;7.014;2022-09-29T08:14:04;4.63;;;2.55;;
62058;SDS011;48017;51.064;7.014;2022-09-29T08:16:30;4.50;;;2.53;;
62058;SDS011;48017;51.064;7.014;2022-09-29T08:18:55;3.08;;;2.50;;
62058;SDS011;48017;51.064;7.014;2022-09-29T08:21:20;6.07;;;3.00;;
62058;SDS011;48017;51.064;7.014;2022-09-29T08:23:46;4.10;;;2.65;;
62058;SDS011;48017;51.064;7.014;2022-09-29T08:26:12;3.72;;;2.70;;
62058;SDS011;48017;51.064;7.014;2022-09-29T08:28:42;3.40;;;2.58;;
62058;SDS011;48017;51.064;7.014;2022-09-29T08:31:13;3.65;;;2.50;;
62058;SDS011;48017;51.064;7.014;2022-09-29T08:33:44;4.18;;;2.20;;
62058;SDS011;48017;51.064;7.014;2022-09-29T08:36:10;3.08;;;2.13;;
62058;SDS011;48017;51.064;7.014;2022-09-29T08:38:41;3.22;;;2.35;;
62058;SDS011;48017;51.064;7.014;2022-09-29T08:41:18;3.17;;;2.30;;
62058;SDS011;48017;51.064;7.014;2022-09-29T08:44:09;4.32;;;2.53;;
62058;SDS011;48017;51.064;7.014;2022-09-29T08:46:38;4.53;;;2.90;;
62058;SDS011;48017;51.064;7.014;2022-09-29T08:49:28;4.28;;;2.78;;
62058;SDS011;48017;51.064;7.014;2022-09-29T08:52:03;3.85;;;2.65;;
62058;SDS011;48017;51.064;7.014;2022-09-29T08:54:41;4.65;;;2.75;;
62058;SDS011;48017;51.064;7.014;2022-09-29T08:57:14;3.92;;;2.90;;
62058;SDS011;48017;51.064;7.014;2022-09-29T08:59:43;4.28;;;2.70;;
62058;SDS011;48017;51.064;7.014;2022-09-29T09:07:50;3.50;;;2.23;;
62058;SDS011;48017;51.064;7.014;2022-09-29T09:10:37;4.50;;;2.65;;
62058;SDS011;48017;51.064;7.014;2022-09-29T09:21:51;4.78;;;2.50;;
62058;SDS011;48017;51.064;7.014;2022-09-29T09:27:15;4.45;;;2.67;;
62058;SDS011;48017;51.064;7.014;2022-09-29T09:29:46;3.67;;;2.50;;
62058;SDS011;48017;51.064;7.014;2022-09-29T09:32:24;6.28;;;2.60;;
62058;SDS011;48017;51.064;7.014;2022-09-29T09:34:55;4.00;;;2.78;;
62058;SDS011;48017;51.064;7.014;2022-09-29T09:37:25;3.42;;;2.40;;
62058;SDS011;48017;51.064;7.014;2022-09-29T09:40:04;6.07;;;2.60;;
62058;SDS011;48017;51.064;7.014;2022-09-29T09:42:33;3.45;;;2.50;;
62058;SDS011;48017;51.064;7.014;2022-09-29T09:45:09;3.15;;;2.28;;
62058;SDS011;48017;51.064;7.014;2022-09-29T09:47:42;2.97;;;2.40;;
62058;SDS011;48017;51.064;7.014;2022-09-29T09:55:16;4.50;;;2.90;;
62058;SDS011;48017;51.064;7.014;2022-09-29T10:00:49;4.13;;;2.88;;
62058;SDS011;48017;51.064;7.014;2022-09-29T10:03:20;4.25;;;2.70;;
62058;SDS011;48017;51.064;7.014;2022-09-29T10:05:46;5.68;;;2.78;;
62058;SDS011;48017;51.064;7.014;2022-09-29T10:11:03;4.03;;;2.53;;
62058;SDS011;48017;51.064;7.014;2022-09-29T10:13:40;5.15;;;3.42;;
62058;SDS011;48017;51.064;7.014;2022-09-29T10:19:06;5.05;;;3.08;;
62058;SDS011;48017;51.064;7.014;2022-09-29T10:21:35;3.45;;;2.40;;
62058;SDS011;48017;51.064;7.014;2022-09-29T10:24:19;3.97;;;2.90;;
62058;SDS011;48017;51.064;7.014;2022-09-29T10:26:52;3.22;;;2.35;;
62058;SDS011;48017;51.064;7.014;2022-09-29T10:32:04;3.92;;;2.60;;
62058;SDS011;48017;51.064;7.014;2022-09-29T10:34:33;4.97;;;2.88;;
62058;SDS011;48017;51.064;7.014;2022-09-29T10:39:33;3.95;;;2.92;;
62058;SDS011;48017;51.064;7.014;2022-09-29T10:42:20;10.10;;;3.97;;
62058;SDS011;48017;51.064;7.014;2022-09-29T10:45:09;7.72;;;2.80;;
62058;SDS011;48017;51.064;7.014;2022-09-29T10:47:36;5.88;;;3.30;;
62058;SDS011;48017;51.064;7.014;2022-09-29T10:50:18;4.65;;;2.95;;
62058;SDS011;48017;51.064;7.014;2022-09-29T10:55:18;3.97;;;2.60;;
62058;SDS011;48017;51.064;7.014;2022-09-29T10:57:45;4.13;;;2.70;;
62058;SDS011;48017;51.064;7.014;2022-09-29T11:00:25;5.30;;;2.65;;
62058;SDS011;48017;51.064;7.014;2022-09-29T11:02:51;3.83;;;2.80;;
62058;SDS011;48017;51.064;7.014;2022-09-29T11:05:23;3.42;;;2.33;;
62058;SDS011;48017;51.064;7.014;2022-09-29T11:07:49;3.88;;;2.40;;
62058;SDS011;48017;51.064;7.014;2022-09-29T11:10:29;3.80;;;2.35;;
62058;SDS011;48017;51.064;7.014;2022-09-29T11:12:56;5.72;;;2.60;;
62058;SDS011;48017;51.064;7.014;2022-09-29T11:17:50;4.47;;;2.20;;
62058;SDS011;48017;51.064;7.014;2022-09-29T11:20:16;3.75;;;2.40;;
62058;SDS011;48017;51.064;7.014;2022-09-29T11:28:22;3.25;;;1.65;;
62058;SDS011;48017;51.064;7.014;2022-09-29T11:36:37;3.03;;;2.08;;
62058;SDS011;48017;51.064;7.014;2022-09-29T11:39:14;7.05;;;2.35;;
62058;SDS011;48017;51.064;7.014;2022-09-29T12:00:54;3.10;;;1.70;;
62058;SDS011;48017;51.064;7.014;2022-09-29T12:03:29;2.28;;;1.40;;
62058;SDS011;48017;51.064;7.014;2022-09-29T12:09:05;2.40;;;1.70;;
62058;SDS011;48017;51.064;7.014;2022-09-29T12:17:24;2.63;;;1.75;;
62058;SDS011;48017;51.064;7.014;2022-09-29T12:20:38;3.67;;;1.90;;
62058;SDS011;48017;51.064;7.014;2022-09-29T12:22:44;4.00;;;1.77;;
62058;SDS011;48017;51.064;7.014;2022-09-29T12:25:17;3.60;;;1.70;;
62058;SDS011;48017;51.064;7.014;2022-09-29T12:27:48;2.88;;;1.70;;
62058;SDS011;48017;51.064;7.014;2022-09-29T12:31:20;2.63;;;1.48;;
62058;SDS011;48017;51.064;7.014;2022-09-29T12:41:46;3.53;;;1.75;;
62058;SDS011;48017;51.064;7.014;2022-09-29T12:44:19;2.95;;;1.55;;
62058;SDS011;48017;51.064;7.014;2022-09-29T12:47:44;1.98;;;1.25;;
62058;SDS011;48017;51.064;7.014;2022-09-29T12:49:54;3.50;;;1.73;;
62058;SDS011;48017;51.064;7.014;2022-09-29T12:52:32;3.65;;;1.80;;
62058;SDS011;48017;51.064;7.014;2022-09-29T12:55:06;3.78;;;1.90;;
62058;SDS011;48017;51.064;7.014;2022-09-29T12:57:39;3.33;;;1.80;;
62058;SDS011;48017;51.064;7.014;2022-09-29T13:00:16;2.70;;;1.58;;
62058;SDS011;48017;51.064;7.014;2022-09-29T13:02:55;2.83;;;1.50;;
62058;SDS011;48017;51.064;7.014;2022-09-29T13:14:33;2.40;;;1.20;;
62058;SDS011;48017;51.064;7.014;2022-09-29T13:17:23;2.75;;;1.30;;
62058;SDS011;48017;51.064;7.014;2022-09-29T13:19:56;3.10;;;1.58;;
62058;SDS011;48017;51.064;7.014;2022-09-29T13:22:35;2.50;;;1.65;;
62058;SDS011;48017;51.064;7.014;2022-09-29T13:25:19;2.83;;;1.70;;
62058;SDS011;48017;51.064;7.014;2022-09-29T13:27:57;2.85;;;1.65;;
62058;SDS011;48017;51.064;7.014;2022-09-29T13:30:27;3.85;;;1.90;;
62058;SDS011;48017;51.064;7.014;2022-09-29T13:33:01;3.03;;;1.60;;
62058;SDS011;48017;51.064;7.014;2022-09-29T13:35:40;3.33;;;1.70;;
62058;SDS011;48017;51.064;7.014;2022-09-29T13:38:14;2.70;;;1.70;;
62058;SDS011;48017;51.064;7.014;2022-09-29T13:54:41;2.90;;;1.35;;
62058;SDS011;48017;51.064;7.014;2022-09-29T13:57:17;3.70;;;1.63;;
62058;SDS011;48017;51.064;7.014;2022-09-29T14:04:53;3.72;;;1.70;;
62058;SDS011;48017;51.064;7.014;2022-09-29T14:13:14;2.50;;;1.50;;
62058;SDS011;48017;51.064;7.014;2022-09-29T14:15:53;2.70;;;1.52;;
62058;SDS011;48017;51.064;7.014;2022-09-29T14:21:44;2.80;;;1.50;;
62058;SDS011;48017;51.064;7.014;2022-09-29T14:32:39;3.47;;;1.75;;
62058;SDS011;48017;51.064;7.014;2022-09-29T14:38:04;3.85;;;1.85;;
62058;SDS011;48017;51.064;7.014;2022-09-29T14:40:37;4.72;;;1.55;;
62058;SDS011;48017;51.064;7.014;2022-09-29T14:43:15;2.65;;;1.50;;
62058;SDS011;48017;51.064;7.014;2022-09-29T15:00:16;5.35;;;1.88;;
62058;SDS011;48017;51.064;7.014;2022-09-29T15:02:48;2.88;;;1.63;;
62058;SDS011;48017;51.064;7.014;2022-09-29T15:07:55;7.18;;;2.55;;
62058;SDS011;48017;51.064;7.014;2022-09-29T15:10:26;3.58;;;2.08;;
62058;SDS011;48017;51.064;7.014;2022-09-29T15:15:46;3.75;;;2.00;;
62058;SDS011;48017;51.064;7.014;2022-09-29T15:26:14;3.88;;;1.95;;
62058;SDS011;48017;51.064;7.014;2022-09-29T15:28:42;2.92;;;1.88;;
62058;SDS011;48017;51.064;7.014;2022-09-29T15:31:15;3.65;;;2.15;;
62058;SDS011;48017;51.064;7.014;2022-09-29T15:33:42;4.20;;;1.95;;
62058;SDS011;48017;51.064;7.014;2022-09-29T15:36:52;4.80;;;2.00;;
62058;SDS011;48017;51.064;7.014;2022-09-29T15:39:04;3.95;;;1.80;;
62058;SDS011;48017;51.064;7.014;2022-09-29T15:41:32;3.03;;;1.88;;
62058;SDS011;48017;51.064;7.014;2022-09-29T15:44:00;3.05;;;1.63;;
62058;SDS011;48017;51.064;7.014;2022-09-29T15:49:19;4.07;;;1.83;;
62058;SDS011;48017;51.064;7.014;2022-09-29T15:52:05;4.30;;;1.35;;
62058;SDS011;48017;51.064;7.014;2022-09-29T15:54:39;1.55;;;0.98;;
62058;SDS011;48017;51.064;7.014;2022-09-29T16:02:48;2.38;;;1.02;;
62058;SDS011;48017;51.064;7.014;2022-09-29T16:05:21;2.50;;;1.00;;
62058;SDS011;48017;51.064;7.014;2022-09-29T16:07:53;2.03;;;1.02;;
62058;SDS011;48017;51.064;7.014;2022-09-29T16:10:28;2.00;;;1.13;;
62058;SDS011;48017;51.064;7.014;2022-09-29T16:12:56;2.00;;;0.90;;
62058;SDS011;48017;51.064;7.014;2022-09-29T16:17:58;2.33;;;1.20;;
62058;SDS011;48017;51.064;7.014;2022-09-29T16:20:27;2.83;;;1.30;;
62058;SDS011;48017;51.064;7.014;2022-09-29T16:22:55;4.05;;;1.27;;
62058;SDS011;48017;51.064;7.014;2022-09-29T16:25:23;2.55;;;1.23;;
62058;SDS011;48017;51.064;7.014;2022-09-29T16:27:53;3.03;;;1.20;;
62058;SDS011;48017;51.064;7.014;2022-09-29T16:30:24;1.88;;;1.23;;
62058;SDS011;48017;51.064;7.014;2022-09-29T16:32:55;2.65;;;1.33;;
62058;SDS011;48017;51.064;7.014;2022-09-29T16:35:54;3.13;;;1.33;;
62058;SDS011;48017;51.064;7.014;2022-09-29T16:38:55;2.60;;;1.27;;
62058;SDS011;48017;51.064;7.014;2022-09-29T16:41:20;2.15;;;1.30;;
62058;SDS011;48017;51.064;7.014;2022-09-29T16:44:11;3.33;;;1.20;;
62058;SDS011;48017;51.064;7.014;2022-09-29T16:49:22;2.55;;;1.30;;
62058;SDS011;48017;51.064;7.014;2022-09-29T16:51:50;4.38;;;1.77;;
62058;SDS011;48017;51.064;7.014;2022-09-29T16:54:28;2.90;;;1.40;;
62058;SDS011;48017;51.064;7.014;2022-09-29T16:57:09;3.15;;;1.83;;
62058;SDS011;48017;51.064;7.014;2022-09-29T16:59:42;4.95;;;1.73;;
62058;SDS011;48017;51.064;7.014;2022-09-29T17:02:08;3.33;;;1.75;;
62058;SDS011;48017;51.064;7.014;2022-09-29T17:04:34;3.83;;;1.77;;
62058;SDS011;48017;51.064;7.014;2022-09-29T17:07:00;4.40;;;1.75;;
62058;SDS011;48017;51.064;7.014;2022-09-29T17:09:27;3.03;;;1.60;;
62058;SDS011;48017;51.064;7.014;2022-09-29T17:11:53;3.55;;;1.50;;
62058;SDS011;48017;51.064;7.014;2022-09-29T17:14:19;2.70;;;1.60;;
62058;SDS011;48017;51.064;7.014;2022-09-29T17:16:45;4.53;;;1.67;;
62058;SDS011;48017;51.064;7.014;2022-09-29T17:19:14;4.78;;;1.73;;
62058;SDS011;48017;51.064;7.014;2022-09-29T17:21:41;5.35;;;2.33;;
62058;SDS011;48017;51.064;7.014;2022-09-29T17:24:06;4.72;;;2.83;;
62058;SDS011;48017;51.064;7.014;2022-09-29T17:26:39;5.55;;;3.10;;
62058;SDS011;48017;51.064;7.014;2022-09-29T17:29:26;5.50;;;2.95;;
62058;SDS011;48017;51.064;7.014;2022-09-29T17:31:52;4.85;;;2.80;;
62058;SDS011;48017;51.064;7.014;2022-09-29T17:34:18;8.82;;;4.60;;
62058;SDS011;48017;51.064;7.014;2022-09-29T17:36:53;6.07;;;3.88;;
62058;SDS011;48017;51.064;7.014;2022-09-29T17:39:19;6.65;;;4.03;;
62058;SDS011;48017;51.064;7.014;2022-09-29T17:41:45;6.32;;;3.40;;
62058;SDS011;48017;51.064;7.014;2022-09-29T17:44:12;5.80;;;3.58;;
62058;SDS011;48017;51.064;7.014;2022-09-29T17:46:38;5.80;;;3.63;;
62058;SDS011;48017;51.064;7.014;2022-09-29T17:49:07;6.28;;;3.30;;
62058;SDS011;48017;51.064;7.014;2022-09-29T17:51:35;8.00;;;4.03;;
62058;SDS011;48017;51.064;7.014;2022-09-29T17:54:00;6.78;;;4.50;;
62058;SDS011;48017;51.064;7.014;2022-09-29T17:56:25;6.93;;;4.40;;
62058;SDS011;48017;51.064;7.014;2022-09-29T17:58:51;10.05;;;6.07;;
62058;SDS011;48017;51.064;7.014;2022-09-29T18:01:18;8.45;;;5.57;;
62058;SDS011;48017;51.064;7.014;2022-09-29T18:03:46;7.90;;;4.53;;
62058;SDS011;48017;51.064;7.014;2022-09-29T18:06:19;8.52;;;4.88;;
62058;SDS011;48017;51.064;7.014;2022-09-29T18:08:49;6.15;;;4.40;;
62058;SDS011;48017;51.064;7.014;2022-09-29T18:11:16;6.82;;;4.00;;
62058;SDS011;48017;51.064;7.014;2022-09-29T18:13:43;5.15;;;3.40;;
62058;SDS011;48017;51.064;7.014;2022-09-29T18:16:10;4.72;;;3.20;;
62058;SDS011;48017;51.064;7.014;2022-09-29T18:18:37;8.18;;;3.78;;
62058;SDS011;48017;51.064;7.014;2022-09-29T18:21:03;5.25;;;3.38;;
62058;SDS011;48017;51.064;7.014;2022-09-29T18:23:30;4.65;;;3.13;;
62058;SDS011;48017;51.064;7.014;2022-09-29T18:25:56;5.93;;;3.30;;
62058;SDS011;48017;51.064;7.014;2022-09-29T18:28:21;4.07;;;2.95;;
62058;SDS011;48017;51.064;7.014;2022-09-29T18:30:48;4.95;;;3.08;;
62058;SDS011;48017;51.064;7.014;2022-09-29T18:33:17;4.35;;;3.03;;
62058;SDS011;48017;51.064;7.014;2022-09-29T18:35:44;5.28;;;3.63;;
62058;SDS011;48017;51.064;7.014;2022-09-29T18:38:11;7.28;;;3.53;;
62058;SDS011;48017;51.064;7.014;2022-09-29T18:40:37;4.47;;;3.20;;
62058;SDS011;48017;51.064;7.014;2022-09-29T18:43:03;5.30;;;3.47;;